Albert, Kansas
Current Conditions -  °F | °C
As of 10:15 PM on Friday 24 Oct 2014 (Local Time) from KGBD Reporting Station
Clear Clear  
Wind Chill: 61°   Ceiling: Unl
Heat Index: 61°   Visibility: 10mi
Dew Point: 54°   Wind: 9mph
Humidity: 77%   Direction: 200°SSW
Pressure: 30.04"   Gusts: NA
Location:  38.45°N, 99.01°W
Report Text: KGBD 250315Z AUTO 20008KT 10SM CLR 16/12 A3004 RMK AO1
Loading
Personal Weather Stations






























Interactive Weather Map New forecast layout! Learn more

10-Day Weather Forecast

Advertisements
Track Severe Weather on mobile